createdAt,value
2018-08-28T00:02:29.145Z,16.70
2018-08-28T00:04:56.486Z,16.71
2018-08-28T00:07:23.698Z,16.73
2018-08-28T00:09:50.893Z,16.73
2018-08-28T00:12:18.115Z,16.78
2018-08-28T00:14:45.801Z,16.79
2018-08-28T00:17:13.425Z,16.80
2018-08-28T00:19:40.659Z,16.74
2018-08-28T00:22:07.864Z,16.71
2018-08-28T00:24:35.145Z,16.67
2018-08-28T00:27:02.683Z,16.71
2018-08-28T00:29:29.864Z,16.68
2018-08-28T00:31:57.056Z,16.65
2018-08-28T00:34:24.225Z,16.61
2018-08-28T00:36:51.477Z,16.56
2018-08-28T00:39:18.756Z,16.56
2018-08-28T00:41:46.047Z,16.53
2018-08-28T00:44:13.452Z,16.51
2018-08-28T00:46:40.719Z,16.60
2018-08-28T00:49:07.935Z,16.55
2018-08-28T00:51:35.233Z,16.59
2018-08-28T00:54:02.521Z,16.54
2018-08-28T00:56:29.708Z,16.57
2018-08-28T00:58:56.889Z,16.68
2018-08-28T01:01:24.172Z,16.65
2018-08-28T01:03:51.678Z,16.57
2018-08-28T01:06:18.833Z,16.59
2018-08-28T01:08:46.376Z,16.56
2018-08-28T01:11:13.541Z,16.57
2018-08-28T01:13:40.768Z,16.55
2018-08-28T01:16:08.112Z,16.55
2018-08-28T01:18:35.288Z,16.55
2018-08-28T01:21:02.445Z,16.61
2018-08-28T01:23:29.693Z,16.59
2018-08-28T01:25:56.970Z,16.53
2018-08-28T01:28:24.318Z,16.62
2018-08-28T01:30:51.736Z,16.63
2018-08-28T01:33:18.837Z,16.60
2018-08-28T01:35:46.127Z,16.62
2018-08-28T01:38:13.533Z,16.61
2018-08-28T01:40:40.854Z,16.59
2018-08-28T01:43:13.632Z,16.56
2018-08-28T01:45:40.805Z,16.57
2018-08-28T01:48:07.982Z,16.50
2018-08-28T01:50:35.297Z,16.52
2018-08-28T01:53:02.610Z,16.57
2018-08-28T01:55:29.812Z,16.49
2018-08-28T01:57:57.037Z,16.57
2018-08-28T02:00:24.237Z,16.55
2018-08-28T02:02:51.693Z,16.49
2018-08-28T02:05:18.988Z,16.42
2018-08-28T02:07:46.446Z,16.38
2018-08-28T02:10:13.653Z,16.35
2018-08-28T02:12:40.877Z,16.32
2018-08-28T02:15:08.140Z,16.38
2018-08-28T02:17:35.438Z,16.34
2018-08-28T02:20:02.719Z,16.29
2018-08-28T02:22:29.895Z,16.21
2018-08-28T02:24:57.049Z,16.17
2018-08-28T02:27:24.327Z,16.16
2018-08-28T02:29:51.594Z,16.12
2018-08-28T02:32:18.708Z,16.09
2018-08-28T02:34:46.520Z,16.06
2018-08-28T02:37:13.789Z,15.99
2018-08-28T02:39:41.025Z,15.97
2018-08-28T02:42:08.364Z,15.90
2018-08-28T02:44:35.564Z,15.84
2018-08-28T02:47:02.795Z,15.75
2018-08-28T02:49:29.989Z,15.70
2018-08-28T02:51:57.224Z,15.66
2018-08-28T02:54:24.547Z,15.57
2018-08-28T02:56:51.748Z,15.46
2018-08-28T02:59:18.879Z,15.43
2018-08-28T03:01:46.302Z,15.37
2018-08-28T03:04:13.636Z,15.32
2018-08-28T03:06:40.938Z,15.28
2018-08-28T03:09:08.297Z,15.26
2018-08-28T03:11:38.824Z,15.26
2018-08-28T03:14:05.954Z,15.25
2018-08-28T03:16:33.189Z,15.22
2018-08-28T03:19:00.547Z,15.20
2018-08-28T03:21:27.777Z,15.15
2018-08-28T03:23:58.460Z,15.15
2018-08-28T03:26:25.672Z,15.08
2018-08-28T03:28:53.145Z,15.06
2018-08-28T03:31:20.448Z,15.03
2018-08-28T03:33:47.627Z,15.06
2018-08-28T03:36:14.761Z,15.07
2018-08-28T03:38:42.158Z,15.01
2018-08-28T03:41:09.410Z,14.98
2018-08-28T03:43:36.626Z,14.97
2018-08-28T03:46:03.774Z,14.86
2018-08-28T03:48:31.556Z,14.78
2018-08-28T03:50:58.813Z,14.76
2018-08-28T03:53:25.980Z,14.70
2018-08-28T03:55:53.821Z,14.61
2018-08-28T03:58:21.013Z,14.54
2018-08-28T04:00:48.350Z,14.50
2018-08-28T04:03:15.565Z,14.45
2018-08-28T04:05:42.775Z,14.40
2018-08-28T04:08:10.376Z,14.37
2018-08-28T04:10:37.624Z,14.36
2018-08-28T04:13:04.997Z,14.34
2018-08-28T04:15:33.472Z,14.34
2018-08-28T04:18:01.571Z,14.39
2018-08-28T04:20:28.900Z,14.40
2018-08-28T04:22:56.021Z,14.43
2018-08-28T04:25:23.247Z,14.45
2018-08-28T04:27:50.956Z,14.51
2018-08-28T04:30:18.489Z,14.53
2018-08-28T04:32:46.830Z,14.57
2018-08-28T04:35:14.949Z,14.62
2018-08-28T04:37:42.837Z,14.66
2018-08-28T04:40:10.088Z,14.72
2018-08-28T04:42:37.313Z,14.72
2018-08-28T04:45:04.683Z,14.75
2018-08-28T04:47:31.992Z,14.77
2018-08-28T04:49:59.137Z,14.77
2018-08-28T04:52:26.264Z,14.82
2018-08-28T04:54:53.840Z,14.88
2018-08-28T04:57:24.373Z,14.84
2018-08-28T04:59:51.947Z,14.85
2018-08-28T05:02:19.134Z,14.87
2018-08-28T05:04:46.689Z,14.86
2018-08-28T05:07:13.849Z,14.87
2018-08-28T05:09:41.393Z,14.86
2018-08-28T05:12:10.668Z,14.89
2018-08-28T05:14:37.876Z,14.88
2018-08-28T05:17:05.088Z,14.86
2018-08-28T05:19:32.973Z,14.83
2018-08-28T05:22:00.450Z,14.87
2018-08-28T05:24:27.781Z,14.86
2018-08-28T05:26:55.000Z,14.91
2018-08-28T05:29:22.232Z,14.99
2018-08-28T05:31:49.824Z,15.06
2018-08-28T05:34:17.177Z,15.15
2018-08-28T05:36:44.322Z,15.17
2018-08-28T05:39:11.567Z,15.28
2018-08-28T05:41:38.712Z,15.40
2018-08-28T05:44:05.931Z,15.42
2018-08-28T05:46:33.785Z,15.36
2018-08-28T05:49:01.397Z,15.44
2018-08-28T05:51:28.764Z,15.44
2018-08-28T05:53:55.971Z,15.62
2018-08-28T05:56:23.156Z,15.69
2018-08-28T05:58:50.687Z,15.72
2018-08-28T06:01:17.859Z,15.70
2018-08-28T06:03:45.004Z,15.66
2018-08-28T06:06:12.143Z,15.71
2018-08-28T06:08:39.455Z,15.73
2018-08-28T06:11:06.765Z,15.80
2018-08-28T06:13:35.632Z,16.03
2018-08-28T06:16:02.840Z,16.02
2018-08-28T06:18:29.967Z,16.04
2018-08-28T06:20:57.242Z,16.19
2018-08-28T06:23:24.541Z,16.32
2018-08-28T06:25:51.668Z,16.39
2018-08-28T06:28:18.801Z,16.45
2018-08-28T06:30:45.944Z,16.56
2018-08-28T06:33:13.104Z,16.64
2018-08-28T06:35:40.412Z,16.74
2018-08-28T06:38:07.579Z,16.85
2018-08-28T06:40:34.910Z,16.99
2018-08-28T06:43:02.047Z,17.09
2018-08-28T06:45:29.276Z,17.18
2018-08-28T06:47:56.624Z,17.29
2018-08-28T06:50:23.721Z,17.45
2018-08-28T06:52:50.897Z,17.51
2018-08-28T06:55:18.133Z,17.70
2018-08-28T06:57:45.312Z,17.67
2018-08-28T07:00:12.586Z,17.72
2018-08-28T07:02:39.704Z,17.82
2018-08-28T07:05:06.949Z,17.85
2018-08-28T07:07:34.191Z,18.09
2018-08-28T07:10:01.318Z,18.07
2018-08-28T07:12:28.775Z,18.05
2018-08-28T07:14:55.996Z,18.18
2018-08-28T07:17:23.147Z,18.19
2018-08-28T07:19:50.293Z,18.37
2018-08-28T07:22:17.497Z,18.48
2018-08-28T07:24:44.651Z,18.53
2018-08-28T07:27:11.806Z,18.57
2018-08-28T07:29:38.979Z,18.66
2018-08-28T07:32:06.123Z,18.72
2018-08-28T07:34:33.332Z,18.71
2018-08-28T07:37:00.577Z,18.85
2018-08-28T07:39:27.685Z,19.03
2018-08-28T07:41:54.833Z,19.08
2018-08-28T07:44:22.494Z,19.28
2018-08-28T07:46:50.772Z,19.37
2018-08-28T07:49:17.960Z,19.40
2018-08-28T07:51:45.359Z,19.45
2018-08-28T07:54:13.396Z,19.45
2018-08-28T07:56:40.495Z,19.45
2018-08-28T07:59:07.708Z,19.77
2018-08-28T08:01:34.943Z,19.97
2018-08-28T08:04:02.360Z,19.97
2018-08-28T08:06:29.612Z,19.95
2018-08-28T08:08:56.795Z,19.91
2018-08-28T08:11:23.953Z,20.02
2018-08-28T08:13:51.175Z,20.16
2018-08-28T08:16:18.527Z,20.09
2018-08-28T08:18:45.560Z,20.05
2018-08-28T08:21:12.852Z,20.01
2018-08-28T08:23:40.013Z,20.13
2018-08-28T08:26:07.263Z,20.41
2018-08-28T08:28:34.508Z,20.43
2018-08-28T08:31:01.733Z,20.52
2018-08-28T08:33:28.909Z,20.81
2018-08-28T08:35:56.179Z,20.95
2018-08-28T08:38:23.365Z,21.07
2018-08-28T08:40:50.503Z,21.02
2018-08-28T08:43:17.870Z,21.38
2018-08-28T08:45:46.382Z,21.30
2018-08-28T08:48:13.995Z,21.23
2018-08-28T08:50:41.644Z,21.54
2018-08-28T08:53:09.017Z,21.34
2018-08-28T08:55:36.239Z,21.64
2018-08-28T08:58:03.889Z,21.69
2018-08-28T09:00:31.980Z,21.93
2018-08-28T09:02:59.463Z,21.54
2018-08-28T09:05:26.747Z,21.46
2018-08-28T09:07:54.641Z,21.76
2018-08-28T09:10:22.288Z,21.76
2018-08-28T09:12:50.021Z,21.85
2018-08-28T09:15:17.738Z,22.14
2018-08-28T09:17:45.173Z,22.03
2018-08-28T09:20:12.776Z,22.46
2018-08-28T09:22:40.727Z,22.83
2018-08-28T09:25:08.193Z,22.95
2018-08-28T09:27:35.572Z,22.85
2018-08-28T09:30:02.919Z,22.79
2018-08-28T09:32:30.027Z,22.68
2018-08-28T09:34:57.295Z,22.28
2018-08-28T09:37:24.585Z,21.98
2018-08-28T09:39:51.757Z,21.78
2018-08-28T09:42:19.065Z,22.12
2018-08-28T09:44:46.177Z,22.86
2018-08-28T09:47:13.400Z,23.40
2018-08-28T09:49:40.742Z,23.77
2018-08-28T09:52:07.950Z,24.12
2018-08-28T09:54:35.165Z,24.66
2018-08-28T09:57:02.557Z,24.22
2018-08-28T09:59:29.808Z,23.05
2018-08-28T10:01:57.139Z,23.20
2018-08-28T10:04:24.447Z,23.29
2018-08-28T10:06:51.565Z,23.31
2018-08-28T10:09:18.908Z,23.09
2018-08-28T10:11:54.650Z,23.65
2018-08-28T10:14:21.839Z,23.89
2018-08-28T10:16:49.093Z,23.14
2018-08-28T10:19:16.403Z,23.04
2018-08-28T10:21:43.750Z,23.56
2018-08-28T10:24:11.294Z,23.88
2018-08-28T10:26:38.671Z,24.23
2018-08-28T10:29:05.811Z,24.60
2018-08-28T10:31:33.219Z,24.76
2018-08-28T10:34:00.515Z,24.43
2018-08-28T10:36:27.612Z,24.49
2018-08-28T10:38:54.789Z,25.07
2018-08-28T10:41:22.249Z,25.76
2018-08-28T10:43:49.690Z,26.55
2018-08-28T10:46:16.902Z,27.03
2018-08-28T10:48:44.221Z,27.10
2018-08-28T10:51:11.481Z,26.95
2018-08-28T10:53:38.716Z,26.60
2018-08-28T10:56:07.876Z,26.50
2018-08-28T10:58:35.012Z,25.95
2018-08-28T11:01:02.361Z,25.75
2018-08-28T11:03:29.700Z,24.99
2018-08-28T11:05:56.848Z,24.81
2018-08-28T11:08:24.500Z,23.99
2018-08-28T11:10:51.785Z,23.71
2018-08-28T11:13:19.013Z,23.40
2018-08-28T11:15:46.309Z,23.54
2018-08-28T11:18:13.644Z,24.52
2018-08-28T11:20:40.856Z,25.37
2018-08-28T11:23:08.893Z,25.98
2018-08-28T11:25:36.109Z,26.50
2018-08-28T11:28:03.484Z,26.21
2018-08-28T11:30:30.725Z,25.37
2018-08-28T11:32:57.925Z,24.68
2018-08-28T11:35:25.128Z,24.02
2018-08-28T11:37:52.236Z,23.76
2018-08-28T11:40:22.429Z,23.80
2018-08-28T11:42:49.652Z,23.70
2018-08-28T11:45:16.920Z,23.70
2018-08-28T11:47:44.075Z,23.79
2018-08-28T11:50:11.401Z,23.82
2018-08-28T11:52:38.528Z,24.14
2018-08-28T11:55:06.122Z,24.05
2018-08-28T11:57:33.372Z,23.96
2018-08-28T12:00:00.721Z,24.02
2018-08-28T12:02:27.953Z,23.67
2018-08-28T12:04:55.181Z,23.42
2018-08-28T12:07:22.544Z,23.33
2018-08-28T12:09:49.816Z,23.32
2018-08-28T12:12:17.186Z,23.35
2018-08-28T12:14:44.438Z,23.61
2018-08-28T12:17:14.557Z,23.33
2018-08-28T12:19:42.405Z,23.16
2018-08-28T12:22:09.671Z,23.09
2018-08-28T12:24:36.899Z,23.31
2018-08-28T12:27:04.328Z,23.36
2018-08-28T12:29:35.750Z,23.71
2018-08-28T12:32:03.712Z,24.07
2018-08-28T12:34:31.484Z,24.74
2018-08-28T12:36:59.665Z,24.91
2018-08-28T12:39:30.627Z,25.39
2018-08-28T12:41:57.845Z,25.66
2018-08-28T12:44:27.924Z,25.59
2018-08-28T12:46:58.504Z,25.61
2018-08-28T12:49:26.700Z,25.20
2018-08-28T12:51:54.077Z,24.99
2018-08-28T12:54:21.291Z,24.89
2018-08-28T12:56:53.255Z,24.57
2018-08-28T12:59:20.984Z,24.47
2018-08-28T13:01:48.305Z,24.72
2018-08-28T13:04:17.553Z,25.04
2018-08-28T13:06:51.444Z,24.97
2018-08-28T13:09:20.200Z,24.96
2018-08-28T13:11:48.433Z,24.82
2018-08-28T13:14:15.852Z,24.40
2018-08-28T13:16:42.986Z,24.32
2018-08-28T13:19:10.174Z,24.41
2018-08-28T13:21:38.280Z,24.13
2018-08-28T13:24:05.442Z,24.01
2018-08-28T13:26:32.594Z,24.13
2018-08-28T13:29:00.355Z,24.03
2018-08-28T13:31:27.538Z,24.13
2018-08-28T13:33:54.720Z,24.23
2018-08-28T13:36:22.016Z,24.33
2018-08-28T13:38:49.240Z,24.28
2018-08-28T13:41:16.481Z,24.51
2018-08-28T13:43:43.683Z,24.48
2018-08-28T13:46:10.869Z,24.58
2018-08-28T13:48:38.141Z,24.58
2018-08-28T13:51:05.581Z,24.73
2018-08-28T13:53:32.752Z,24.67
2018-08-28T13:56:00.558Z,24.58
2018-08-28T13:58:27.994Z,24.45
2018-08-28T14:00:55.272Z,24.44
2018-08-28T14:03:22.586Z,24.21
2018-08-28T14:05:49.844Z,24.29
2018-08-28T14:08:17.037Z,24.20
2018-08-28T14:10:44.196Z,24.37
2018-08-28T14:13:11.459Z,24.56
2018-08-28T14:15:38.757Z,24.37
2018-08-28T14:18:05.904Z,24.15
2018-08-28T14:20:34.161Z,24.19
2018-08-28T14:23:01.625Z,24.10
2018-08-28T14:25:28.860Z,24.28
2018-08-28T14:27:56.304Z,24.18
2018-08-28T14:30:23.423Z,24.08
2018-08-28T14:32:50.609Z,24.00
2018-08-28T14:35:17.808Z,24.28
2018-08-28T14:37:45.877Z,24.50
2018-08-28T14:40:13.004Z,24.61
2018-08-28T14:42:40.768Z,24.49
2018-08-28T14:45:07.880Z,24.54
2018-08-28T14:47:35.021Z,24.15
2018-08-28T14:50:02.358Z,23.93
2018-08-28T14:52:29.425Z,24.10
2018-08-28T14:54:56.547Z,23.84
2018-08-28T14:57:23.831Z,23.75
2018-08-28T14:59:51.660Z,23.70
2018-08-28T15:02:18.880Z,23.59
2018-08-28T15:04:46.040Z,23.47
2018-08-28T15:07:13.889Z,23.29
2018-08-28T15:09:42.145Z,23.19
2018-08-28T15:12:11.105Z,23.28
2018-08-28T15:14:38.925Z,23.13
2018-08-28T15:17:06.780Z,22.99
2018-08-28T15:19:34.246Z,22.97
2018-08-28T15:22:03.253Z,22.93
2018-08-28T15:24:31.858Z,22.93
2018-08-28T15:26:59.265Z,23.00
2018-08-28T15:29:26.899Z,23.13
2018-08-28T15:31:54.679Z,23.08
2018-08-28T15:34:21.861Z,23.17
2018-08-28T15:36:49.098Z,23.32
2018-08-28T15:39:16.697Z,23.49
2018-08-28T15:41:44.509Z,23.65
2018-08-28T15:44:12.471Z,23.50
2018-08-28T15:46:39.917Z,23.47
2018-08-28T15:49:07.648Z,23.56
2018-08-28T15:51:35.677Z,23.53
2018-08-28T15:54:03.320Z,23.37
2018-08-28T15:56:31.020Z,23.33
2018-08-28T15:58:58.475Z,23.38
2018-08-28T16:01:26.564Z,23.42
2018-08-28T16:03:55.881Z,23.21
2018-08-28T16:06:23.274Z,23.21
2018-08-28T16:08:50.562Z,23.09
2018-08-28T16:13:44.813Z,23.02
2018-08-28T16:16:11.966Z,22.85
2018-08-28T16:18:39.800Z,23.02
2018-08-28T16:21:07.805Z,22.96
2018-08-28T16:23:37.660Z,22.74
2018-08-28T16:26:04.841Z,22.72
2018-08-28T16:28:32.052Z,22.66
2018-08-28T16:30:59.347Z,22.75
2018-08-28T16:33:26.614Z,22.76
2018-08-28T16:35:53.804Z,22.88
2018-08-28T16:38:20.956Z,22.85
2018-08-28T16:40:48.218Z,22.74
2018-08-28T16:43:15.447Z,22.51
2018-08-28T16:45:43.810Z,22.43
2018-08-28T16:48:11.509Z,22.46
2018-08-28T16:50:38.705Z,22.39
2018-08-28T16:53:05.897Z,22.44
2018-08-28T16:55:33.139Z,22.49
2018-08-28T16:58:00.279Z,22.44
2018-08-28T17:00:27.407Z,22.41
2018-08-28T17:02:54.611Z,22.32
2018-08-28T17:05:21.733Z,22.27
2018-08-28T17:07:48.857Z,22.29
2018-08-28T17:10:16.421Z,22.13
2018-08-28T17:12:43.888Z,22.23
2018-08-28T17:15:11.344Z,22.01
2018-08-28T17:17:38.899Z,21.88
2018-08-28T17:20:06.096Z,21.69
2018-08-28T17:22:33.203Z,21.50
2018-08-28T17:25:00.996Z,21.25
2018-08-28T17:27:28.200Z,21.04
2018-08-28T17:29:55.359Z,20.82
2018-08-28T17:32:22.538Z,20.60
2018-08-28T17:34:49.721Z,20.41
2018-08-28T17:37:16.870Z,20.21
2018-08-28T17:39:44.204Z,20.03
2018-08-28T17:42:11.387Z,19.84
2018-08-28T17:44:38.618Z,19.64
2018-08-28T17:47:05.839Z,19.45
2018-08-28T17:49:33.006Z,19.25
2018-08-28T17:52:00.124Z,19.07
2018-08-28T17:54:27.369Z,18.91
2018-08-28T17:56:54.520Z,18.74
2018-08-28T17:59:21.865Z,18.60
2018-08-28T18:01:49.052Z,18.44
2018-08-28T18:04:16.154Z,18.28
2018-08-28T18:06:43.324Z,18.13
2018-08-28T18:09:10.547Z,17.99
2018-08-28T18:11:37.721Z,17.85
2018-08-28T18:14:04.879Z,17.71
2018-08-28T18:16:32.232Z,17.56
2018-08-28T18:19:00.003Z,17.44
2018-08-28T18:21:27.110Z,17.35
2018-08-28T18:23:54.458Z,17.22
2018-08-28T18:26:21.584Z,17.13
2018-08-28T18:28:48.763Z,17.01
2018-08-28T18:31:15.924Z,16.88
2018-08-28T18:33:43.080Z,16.78
2018-08-28T18:36:10.206Z,16.72
2018-08-28T18:38:37.536Z,16.62
2018-08-28T18:41:04.871Z,16.54
2018-08-28T18:43:31.886Z,16.46
2018-08-28T18:45:59.058Z,16.38
2018-08-28T18:48:26.178Z,16.32
2018-08-28T18:50:53.301Z,16.25
2018-08-28T18:53:20.538Z,16.18
2018-08-28T18:55:47.673Z,16.10
2018-08-28T18:58:14.867Z,16.06
2018-08-28T19:00:42.128Z,15.99
2018-08-28T19:03:09.255Z,15.90
2018-08-28T19:05:36.427Z,15.84
2018-08-28T19:08:07.237Z,15.78
2018-08-28T19:10:34.358Z,15.70
2018-08-28T19:13:01.475Z,15.68
2018-08-28T19:15:28.759Z,15.61
2018-08-28T19:17:55.883Z,15.57
2018-08-28T19:20:23.034Z,15.50
2018-08-28T19:22:50.292Z,15.47
2018-08-28T19:25:17.418Z,15.43
2018-08-28T19:27:44.535Z,15.36
2018-08-28T19:30:11.778Z,15.32
2018-08-28T19:32:38.888Z,15.25
2018-08-28T19:35:06.090Z,15.19
2018-08-28T19:37:33.346Z,15.14
2018-08-28T19:40:00.480Z,15.08
2018-08-28T19:42:27.645Z,15.03
2018-08-28T19:44:55.826Z,14.98
2018-08-28T19:47:23.008Z,14.94
2018-08-28T19:49:50.140Z,14.91
2018-08-28T19:52:17.320Z,14.88
2018-08-28T19:54:44.436Z,14.87
2018-08-28T19:57:11.565Z,14.83
2018-08-28T19:59:38.730Z,14.81
2018-08-28T20:02:05.893Z,14.78
2018-08-28T20:04:33.022Z,14.73
2018-08-28T20:07:00.235Z,14.69
2018-08-28T20:09:27.365Z,14.67
2018-08-28T20:11:54.486Z,14.62
2018-08-28T20:14:21.833Z,14.55
2018-08-28T20:16:48.984Z,14.54
2018-08-28T20:19:16.105Z,14.50
2018-08-28T20:21:43.262Z,14.48
2018-08-28T20:24:10.485Z,14.43
2018-08-28T20:26:37.635Z,14.40
2018-08-28T20:29:04.951Z,14.34
2018-08-28T20:31:32.089Z,14.31
2018-08-28T20:33:59.229Z,14.26
2018-08-28T20:36:26.490Z,14.21
2018-08-28T20:38:53.667Z,14.17
2018-08-28T20:41:20.828Z,14.14
2018-08-28T20:43:48.177Z,14.09
2018-08-28T20:46:15.340Z,14.05
2018-08-28T20:48:42.549Z,14.00
2018-08-28T20:51:09.820Z,13.96
2018-08-28T20:53:36.996Z,13.94
2018-08-28T20:56:04.223Z,13.93
2018-08-28T20:58:32.799Z,13.89
2018-08-28T21:00:59.941Z,13.87
2018-08-28T21:03:27.067Z,13.82
2018-08-28T21:05:54.304Z,13.80
2018-08-28T21:08:22.461Z,13.75
2018-08-28T21:10:49.551Z,13.73
2018-08-28T21:13:16.772Z,13.67
2018-08-28T21:15:43.915Z,13.68
2018-08-28T21:18:17.845Z,13.63
2018-08-28T21:20:45.269Z,13.63
2018-08-28T21:23:12.396Z,13.61
2018-08-28T21:25:39.643Z,13.60
2018-08-28T21:28:06.779Z,13.56
2018-08-28T21:30:33.965Z,13.54
2018-08-28T21:33:01.173Z,13.49
2018-08-28T21:35:28.284Z,13.48
2018-08-28T21:37:55.402Z,13.42
2018-08-28T21:40:22.621Z,13.39
2018-08-28T21:42:49.739Z,13.37
2018-08-28T21:45:16.907Z,13.32
2018-08-28T21:47:44.147Z,13.33
2018-08-28T21:50:11.274Z,13.27
2018-08-28T21:52:38.425Z,13.24
2018-08-28T21:55:05.717Z,13.20
2018-08-28T21:57:32.887Z,13.15
2018-08-28T22:00:00.050Z,13.12
2018-08-28T22:02:27.227Z,13.09
2018-08-28T22:04:54.355Z,13.06
2018-08-28T22:07:27.187Z,13.02
2018-08-28T22:09:54.313Z,12.98
2018-08-28T22:12:21.434Z,12.95
2018-08-28T22:14:48.680Z,12.92
2018-08-28T22:17:15.786Z,12.90
2018-08-28T22:19:42.941Z,12.89
2018-08-28T22:22:10.220Z,12.88
2018-08-28T22:24:37.333Z,12.85
2018-08-28T22:27:04.497Z,12.82
2018-08-28T22:29:31.728Z,12.83
2018-08-28T22:31:58.861Z,12.81
2018-08-28T22:34:26.063Z,12.76
2018-08-28T22:36:53.298Z,12.72
2018-08-28T22:39:20.448Z,12.70
2018-08-28T22:41:47.643Z,12.71
2018-08-28T22:44:14.848Z,12.69
2018-08-28T22:46:42.027Z,12.63
2018-08-28T22:49:09.156Z,12.61
2018-08-28T22:51:36.398Z,12.59
2018-08-28T22:54:03.589Z,12.55
2018-08-28T22:56:30.661Z,12.53
2018-08-28T22:58:57.814Z,12.52
2018-08-28T23:01:25.216Z,12.47
2018-08-28T23:03:52.311Z,12.44
2018-08-28T23:06:19.518Z,12.39
2018-08-28T23:08:46.635Z,12.38
2018-08-28T23:11:14.642Z,12.33
2018-08-28T23:13:41.933Z,12.34
2018-08-28T23:16:09.039Z,12.32
2018-08-28T23:18:36.144Z,12.30
2018-08-28T23:21:03.324Z,12.29
2018-08-28T23:23:30.452Z,12.25
2018-08-28T23:25:57.573Z,12.22
2018-08-28T23:28:24.928Z,12.21
2018-08-28T23:30:52.037Z,12.21
2018-08-28T23:33:19.159Z,12.21
2018-08-28T23:35:46.370Z,12.21
2018-08-28T23:38:13.482Z,12.19
2018-08-28T23:40:40.594Z,12.17
2018-08-28T23:43:07.784Z,12.13
2018-08-28T23:45:34.901Z,12.12
2018-08-28T23:48:02.071Z,12.10
2018-08-28T23:50:29.233Z,12.05
2018-08-28T23:52:56.344Z,12.07
2018-08-28T23:55:23.490Z,12.03
2018-08-28T23:57:50.735Z,12.03
